Time;durP1;ratioP1;P1;durP2;ratioP2;P2;SDS_P1;SDS_P2;PMS_P1;PMS_P2;Temp;Humidity;BMP_temperature;BMP_pressure;BME280_temperature;BME280_humidity;BME280_pressure;Samples;Min_cycle;Max_cycle;Signal;HPM_P1;HPM_P2
2022/11/27 00:01:08;;;;;;;;;;;4.70;99.90;;;;;;5071463;28;20287;-71
2022/11/27 00:03:35;;;;;;;;;;;4.70;99.90;;;;;;5092951;27;20355;-71
2022/11/27 00:06:03;;;;;;;;;;;4.60;99.90;;;;;;5069002;28;19932;-71
2022/11/27 00:08:30;;;;;;;;;;;4.60;99.90;;;;;;5067585;28;19996;-70
2022/11/27 00:10:56;;;;;;;;;;;4.60;99.90;;;;;;5067496;28;19975;-71
2022/11/27 00:13:23;;;;;;;;;;;4.60;99.90;;;;;;5067219;28;19924;-70
2022/11/27 00:15:50;;;;;;;;;;;4.60;99.90;;;;;;5061471;28;19963;-71
2022/11/27 00:18:17;;;;;;;;;;;4.60;99.90;;;;;;5068587;28;20314;-71
2022/11/27 00:20:44;;;;;;;;;;;4.60;99.90;;;;;;5071106;28;19963;-71
2022/11/27 00:23:12;;;;;;;;;;;4.60;99.90;;;;;;5065465;28;20019;-71
2022/11/27 00:25:39;;;;;;;;;;;4.60;99.90;;;;;;5064601;28;19929;-71
2022/11/27 00:28:06;;;;;;;;;;;4.50;99.90;;;;;;5072594;28;19940;-71
2022/11/27 00:30:33;;;;;;;;;;;4.50;99.90;;;;;;5066410;28;20019;-70
2022/11/27 00:32:59;;;;;;;;;;;4.50;99.90;;;;;;5065899;28;20279;-71
2022/11/27 00:35:26;;;;;;;;;;;4.50;99.90;;;;;;5068438;28;19928;-71
2022/11/27 00:37:53;;;;;;;;;;;4.50;99.90;;;;;;5071231;28;20029;-71
2022/11/27 00:40:21;;;;;;;;;;;4.50;99.90;;;;;;5064118;28;19931;-71
2022/11/27 00:42:50;;;;;;;;;;;4.60;99.90;;;;;;5070301;28;19928;-71
2022/11/27 00:45:17;;;;;;;;;;;4.60;99.90;;;;;;5065913;28;20019;-70
2022/11/27 00:47:44;;;;;;;;;;;4.60;99.90;;;;;;5068084;28;19951;-71
2022/11/27 00:50:11;;;;;;;;;;;4.60;99.90;;;;;;5061805;28;20015;-70
2022/11/27 00:52:38;;;;;;;;;;;4.60;99.90;;;;;;5069606;28;19924;-70
2022/11/27 00:55:05;;;;;;;;;;;4.60;99.90;;;;;;5082553;28;20025;-71
2022/11/27 00:57:33;;;;;;;;;;;4.60;99.90;;;;;;5067062;28;19931;-70
2022/11/27 01:00:00;;;;;;;;;;;4.50;99.90;;;;;;5074929;28;19932;-71
2022/11/27 01:02:27;;;;;;;;;;;4.60;99.90;;;;;;5069180;28;19924;-71
2022/11/27 01:04:53;;;;;;;;;;;4.60;99.90;;;;;;5068469;28;20392;-71
2022/11/27 01:07:20;;;;;;;;;;;4.60;99.90;;;;;;5066472;28;19987;-72
2022/11/27 01:09:47;;;;;;;;;;;4.50;99.90;;;;;;5066200;28;19978;-71
2022/11/27 01:12:14;;;;;;;;;;;4.60;99.90;;;;;;5067259;28;19928;-71
2022/11/27 01:14:42;;;;;;;;;;;4.50;99.90;;;;;;5066418;28;20027;-71
2022/11/27 01:17:09;;;;;;;;;;;4.50;99.90;;;;;;5061311;28;20418;-71
2022/11/27 01:19:37;;;;;;;;;;;4.50;99.90;;;;;;5063239;28;20408;-70
2022/11/27 01:22:03;;;;;;;;;;;4.50;99.90;;;;;;5064724;28;19994;-71
2022/11/27 01:24:30;;;;;;;;;;;4.50;99.90;;;;;;5060329;28;19924;-70
2022/11/27 01:26:57;;;;;;;;;;;4.50;99.90;;;;;;5071207;28;20405;-71
2022/11/27 01:29:24;;;;;;;;;;;4.50;99.90;;;;;;5067093;28;19924;-71
2022/11/27 01:31:52;;;;;;;;;;;4.50;99.90;;;;;;5069477;28;20369;-71
2022/11/27 01:34:19;;;;;;;;;;;4.40;99.90;;;;;;5065149;28;20336;-71
2022/11/27 01:36:45;;;;;;;;;;;4.40;99.90;;;;;;5063090;28;19998;-71
2022/11/27 01:39:14;;;;;;;;;;;4.40;99.90;;;;;;5068654;28;19943;-71
2022/11/27 01:41:41;;;;;;;;;;;4.40;99.90;;;;;;5060117;28;19925;-70
2022/11/27 01:44:23;;;;;;;;;;;4.50;99.90;;;;;;5068298;28;20339;-70
2022/11/27 01:46:51;;;;;;;;;;;4.50;99.90;;;;;;5063409;28;19959;-70
2022/11/27 01:49:24;;;;;;;;;;;4.50;99.90;;;;;;5064064;28;20581;-70
2022/11/27 01:51:53;;;;;;;;;;;4.50;99.90;;;;;;5068755;28;20017;-70
2022/11/27 01:54:21;;;;;;;;;;;4.50;99.90;;;;;;5102699;28;19993;-71
2022/11/27 01:56:50;;;;;;;;;;;4.40;99.90;;;;;;5064741;28;19931;-70
2022/11/27 01:59:17;;;;;;;;;;;4.40;99.90;;;;;;5066394;28;19939;-71
2022/11/27 02:01:44;;;;;;;;;;;4.50;99.90;;;;;;5063593;28;19929;-70
2022/11/27 02:04:10;;;;;;;;;;;4.40;99.90;;;;;;5095629;28;20376;-71
2022/11/27 02:06:39;;;;;;;;;;;4.40;99.90;;;;;;5076386;28;19950;-71
2022/11/27 02:09:06;;;;;;;;;;;4.30;99.90;;;;;;5061751;28;19925;-70
2022/11/27 02:11:36;;;;;;;;;;;4.30;99.90;;;;;;5064133;28;19960;-72
2022/11/27 02:14:05;;;;;;;;;;;4.30;99.90;;;;;;5066290;28;19940;-72
2022/11/27 02:16:36;;;;;;;;;;;4.30;99.90;;;;;;5061484;28;20455;-70
2022/11/27 02:19:07;;;;;;;;;;;4.20;99.90;;;;;;5071703;28;20102;-71
2022/11/27 02:21:36;;;;;;;;;;;4.20;99.90;;;;;;5099287;28;20340;-71
2022/11/27 02:24:30;;;;;;;;;;;4.20;99.90;;;;;;5062685;28;20067;-71
2022/11/27 02:27:05;;;;;;;;;;;4.20;99.90;;;;;;5042287;28;19928;-71
2022/11/27 02:29:33;;;;;;;;;;;4.20;99.90;;;;;;5068155;28;19960;-71
2022/11/27 02:32:04;;;;;;;;;;;4.20;99.90;;;;;;5067658;28;19924;-70
2022/11/27 02:34:34;;;;;;;;;;;4.20;99.90;;;;;;5060252;28;21229;-71
2022/11/27 02:37:03;;;;;;;;;;;4.20;99.90;;;;;;5065076;28;19928;-71
2022/11/27 02:39:32;;;;;;;;;;;4.20;99.90;;;;;;5064050;28;20329;-71
2022/11/27 02:42:02;;;;;;;;;;;4.20;99.90;;;;;;5063556;28;19978;-70
2022/11/27 02:44:32;;;;;;;;;;;4.20;99.90;;;;;;5063955;28;19974;-70
2022/11/27 02:47:00;;;;;;;;;;;4.20;99.90;;;;;;5067292;28;19932;-70
2022/11/27 02:49:27;;;;;;;;;;;4.20;99.90;;;;;;5063146;28;19946;-71
2022/11/27 02:51:57;;;;;;;;;;;4.30;99.90;;;;;;5068243;28;20002;-71
2022/11/27 02:54:26;;;;;;;;;;;4.30;99.90;;;;;;5068386;28;19925;-71
2022/11/27 02:56:54;;;;;;;;;;;4.30;99.90;;;;;;5061636;28;19978;-70
2022/11/27 02:59:22;;;;;;;;;;;4.30;99.90;;;;;;5072068;28;20298;-71
2022/11/27 03:01:51;;;;;;;;;;;4.30;99.90;;;;;;5062536;28;19924;-71
2022/11/27 03:04:21;;;;;;;;;;;4.30;99.90;;;;;;5065495;28;19986;-71
2022/11/27 03:06:50;;;;;;;;;;;4.20;99.90;;;;;;5068770;28;19990;-71
2022/11/27 03:09:22;;;;;;;;;;;4.20;99.90;;;;;;5069200;28;19928;-71
2022/11/27 03:11:49;;;;;;;;;;;4.20;99.90;;;;;;5071256;28;19930;-70
2022/11/27 03:14:16;;;;;;;;;;;4.20;99.90;;;;;;5064117;28;19924;-71
2022/11/27 03:16:44;;;;;;;;;;;4.20;99.90;;;;;;5070892;28;19964;-70
2022/11/27 03:19:14;;;;;;;;;;;4.20;99.90;;;;;;5102076;27;20303;-70
2022/11/27 03:21:45;;;;;;;;;;;4.20;99.90;;;;;;5087711;28;19925;-70
2022/11/27 03:24:12;;;;;;;;;;;4.20;99.90;;;;;;5072888;28;20728;-71
2022/11/27 03:26:40;;;;;;;;;;;4.20;99.90;;;;;;5070568;28;19924;-71
2022/11/27 03:29:08;;;;;;;;;;;4.20;99.90;;;;;;5064823;28;19990;-71
2022/11/27 03:31:35;;;;;;;;;;;4.20;99.90;;;;;;5063508;28;19932;-70
2022/11/27 03:34:02;;;;;;;;;;;4.20;99.90;;;;;;5067085;28;19924;-71
2022/11/27 03:36:29;;;;;;;;;;;4.20;99.90;;;;;;5069386;28;20370;-70
2022/11/27 03:38:57;;;;;;;;;;;4.20;99.90;;;;;;5066390;28;20287;-70
2022/11/27 03:41:26;;;;;;;;;;;4.20;99.90;;;;;;5072244;28;19925;-70
2022/11/27 03:43:59;;;;;;;;;;;4.20;99.90;;;;;;5070715;28;19954;-71
2022/11/27 03:46:29;;;;;;;;;;;4.10;99.90;;;;;;5068736;28;20352;-70
2022/11/27 03:48:59;;;;;;;;;;;4.10;99.90;;;;;;5058766;28;19929;-70
2022/11/27 03:51:29;;;;;;;;;;;4.10;99.90;;;;;;5067635;28;20092;-71
2022/11/27 03:54:00;;;;;;;;;;;4.10;99.90;;;;;;5064954;28;19979;-70
2022/11/27 03:56:33;;;;;;;;;;;4.10;99.90;;;;;;5071035;28;19935;-70
2022/11/27 03:59:03;;;;;;;;;;;4.00;99.90;;;;;;5064089;28;20365;-71
2022/11/27 04:01:30;;;;;;;;;;;4.00;99.90;;;;;;5064349;28;19930;-71
2022/11/27 04:03:57;;;;;;;;;;;4.00;99.90;;;;;;5065258;28;20346;-71
2022/11/27 04:06:24;;;;;;;;;;;4.00;99.90;;;;;;5065095;28;19924;-70
2022/11/27 04:08:51;;;;;;;;;;;4.00;99.90;;;;;;5066828;28;19932;-71
2022/11/27 04:11:19;;;;;;;;;;;4.00;99.90;;;;;;5066292;28;20004;-70
2022/11/27 04:13:46;;;;;;;;;;;4.00;99.90;;;;;;5070322;28;20432;-71
2022/11/27 04:16:13;;;;;;;;;;;4.00;99.90;;;;;;5094635;27;19986;-71
2022/11/27 04:18:39;;;;;;;;;;;4.00;99.90;;;;;;5067406;28;20039;-71
2022/11/27 04:21:06;;;;;;;;;;;4.00;99.90;;;;;;5066905;28;20018;-71
2022/11/27 04:23:33;;;;;;;;;;;4.00;99.90;;;;;;5059790;28;20016;-70
2022/11/27 04:26:00;;;;;;;;;;;3.90;99.90;;;;;;5064811;28;19985;-70
2022/11/27 04:28:28;;;;;;;;;;;3.90;99.90;;;;;;5066645;28;19932;-70
2022/11/27 04:30:55;;;;;;;;;;;3.90;99.90;;;;;;5065854;28;19929;-71
2022/11/27 04:33:22;;;;;;;;;;;3.90;99.90;;;;;;5063351;28;19925;-71
2022/11/27 04:35:49;;;;;;;;;;;3.90;99.90;;;;;;5070284;28;19950;-70
2022/11/27 04:38:16;;;;;;;;;;;4.00;99.90;;;;;;5064626;28;20027;-71
2022/11/27 04:40:43;;;;;;;;;;;3.90;99.90;;;;;;5062944;28;20007;-70
2022/11/27 04:43:09;;;;;;;;;;;3.90;99.90;;;;;;5065835;28;20361;-70
2022/11/27 04:45:38;;;;;;;;;;;4.00;99.90;;;;;;5068849;28;19981;-71
2022/11/27 04:48:05;;;;;;;;;;;3.90;99.90;;;;;;5059808;28;20376;-71
2022/11/27 04:50:32;;;;;;;;;;;3.90;99.90;;;;;;5068134;28;19952;-71
2022/11/27 04:52:59;;;;;;;;;;;3.90;99.90;;;;;;5065729;28;19975;-71
2022/11/27 04:55:26;;;;;;;;;;;4.00;99.90;;;;;;5063931;28;19925;-71
2022/11/27 04:57:53;;;;;;;;;;;4.00;99.90;;;;;;5066672;28;20467;-71
2022/11/27 05:00:20;;;;;;;;;;;3.90;99.90;;;;;;5071526;28;19970;-70
2022/11/27 05:02:48;;;;;;;;;;;3.90;99.90;;;;;;5061756;28;20017;-70
2022/11/27 05:05:16;;;;;;;;;;;3.90;99.90;;;;;;5066389;28;19958;-71
2022/11/27 05:07:42;;;;;;;;;;;3.90;99.90;;;;;;5067682;28;20317;-71
2022/11/27 05:10:10;;;;;;;;;;;3.90;99.90;;;;;;5061310;28;20030;-70
2022/11/27 05:12:37;;;;;;;;;;;3.90;99.90;;;;;;5056904;28;20324;-70
2022/11/27 05:15:04;;;;;;;;;;;3.90;99.90;;;;;;5073124;28;20022;-70
2022/11/27 05:17:31;;;;;;;;;;;3.80;99.90;;;;;;5069252;28;19978;-70
2022/11/27 05:19:59;;;;;;;;;;;3.80;99.90;;;;;;5067593;28;20028;-71
2022/11/27 05:22:25;;;;;;;;;;;3.80;99.90;;;;;;5065788;28;19940;-71
2022/11/27 05:24:52;;;;;;;;;;;3.90;99.90;;;;;;5073039;28;19940;-71
2022/11/27 05:27:19;;;;;;;;;;;3.80;99.90;;;;;;5065742;28;20392;-71
2022/11/27 05:29:46;;;;;;;;;;;3.80;99.90;;;;;;5071359;28;19927;-71
2022/11/27 05:32:13;;;;;;;;;;;3.80;99.90;;;;;;5093935;28;19924;-74
2022/11/27 05:34:39;;;;;;;;;;;3.80;99.90;;;;;;5065863;28;20302;-70
2022/11/27 05:37:07;;;;;;;;;;;3.80;99.90;;;;;;5061909;28;20029;-71
2022/11/27 05:39:34;;;;;;;;;;;3.80;99.90;;;;;;5068761;28;20021;-71
2022/11/27 05:42:01;;;;;;;;;;;3.80;99.90;;;;;;5067320;28;19924;-71
2022/11/27 05:44:28;;;;;;;;;;;3.80;99.90;;;;;;5064688;28;19924;-71
2022/11/27 05:46:55;;;;;;;;;;;3.80;99.90;;;;;;5060116;28;19936;-70
2022/11/27 05:49:22;;;;;;;;;;;3.80;99.90;;;;;;5063780;28;19959;-71
2022/11/27 05:51:49;;;;;;;;;;;3.80;99.90;;;;;;5069157;28;19990;-71
2022/11/27 05:54:17;;;;;;;;;;;3.80;99.90;;;;;;5063874;28;19924;-71
2022/11/27 05:56:44;;;;;;;;;;;3.80;99.90;;;;;;5063563;28;20009;-70
2022/11/27 05:59:11;;;;;;;;;;;3.70;99.90;;;;;;5069741;28;19925;-71
2022/11/27 06:01:38;;;;;;;;;;;3.80;99.90;;;;;;5100424;28;20402;-71
2022/11/27 06:04:05;;;;;;;;;;;3.80;99.90;;;;;;5058496;28;20418;-71
2022/11/27 06:06:31;;;;;;;;;;;3.80;99.90;;;;;;5063694;28;19950;-70
2022/11/27 06:08:58;;;;;;;;;;;3.80;99.90;;;;;;5070684;28;19932;-71
2022/11/27 06:11:29;;;;;;;;;;;3.80;99.90;;;;;;5066472;28;19925;-70
2022/11/27 06:13:56;;;;;;;;;;;3.80;99.90;;;;;;5065951;28;20013;-71
2022/11/27 06:16:23;;;;;;;;;;;3.70;99.90;;;;;;5096198;28;19964;-70
2022/11/27 06:18:51;;;;;;;;;;;3.70;99.90;;;;;;5061863;28;19990;-71
2022/11/27 06:21:17;;;;;;;;;;;3.70;99.90;;;;;;5063260;28;19999;-71
2022/11/27 06:23:44;;;;;;;;;;;3.70;99.90;;;;;;5063509;28;19932;-71
2022/11/27 06:26:13;;;;;;;;;;;3.80;99.90;;;;;;5067709;28;19969;-71
2022/11/27 06:28:41;;;;;;;;;;;3.70;99.90;;;;;;5072707;28;19924;-71
2022/11/27 06:31:08;;;;;;;;;;;3.70;99.90;;;;;;5067289;28;19968;-70
2022/11/27 06:33:35;;;;;;;;;;;3.70;99.90;;;;;;5069201;28;19974;-71
2022/11/27 06:36:03;;;;;;;;;;;3.70;99.90;;;;;;5072198;28;20458;-71
2022/11/27 06:38:31;;;;;;;;;;;3.70;99.90;;;;;;5065013;28;19954;-71
2022/11/27 06:41:01;;;;;;;;;;;3.70;99.90;;;;;;5072468;28;20058;-70
2022/11/27 06:43:28;;;;;;;;;;;3.70;99.90;;;;;;5074443;28;19967;-71
2022/11/27 06:45:56;;;;;;;;;;;3.70;99.90;;;;;;5066011;28;19934;-71
2022/11/27 06:48:23;;;;;;;;;;;3.70;99.90;;;;;;5066302;28;19931;-70
2022/11/27 06:50:50;;;;;;;;;;;3.70;99.90;;;;;;5072820;28;19931;-71
2022/11/27 06:53:17;;;;;;;;;;;3.70;99.90;;;;;;5069373;28;19956;-71
2022/11/27 06:55:44;;;;;;;;;;;3.60;99.90;;;;;;5064356;28;19931;-71
2022/11/27 06:58:10;;;;;;;;;;;3.70;99.90;;;;;;5068828;28;19955;-71
2022/11/27 07:00:37;;;;;;;;;;;3.60;99.90;;;;;;5068190;28;20633;-71
2022/11/27 07:03:05;;;;;;;;;;;3.60;99.90;;;;;;5067224;28;19925;-71
2022/11/27 07:05:32;;;;;;;;;;;3.60;99.90;;;;;;5064415;28;19956;-70
2022/11/27 07:07:59;;;;;;;;;;;3.60;99.90;;;;;;5096331;27;19936;-70
2022/11/27 07:10:26;;;;;;;;;;;3.60;99.90;;;;;;5068975;28;20585;-71
2022/11/27 07:12:52;;;;;;;;;;;3.60;99.90;;;;;;5069415;28;19928;-70
2022/11/27 07:15:19;;;;;;;;;;;3.60;99.90;;;;;;5069106;28;19960;-70
2022/11/27 07:17:46;;;;;;;;;;;3.60;99.90;;;;;;5068365;28;19964;-70
2022/11/27 07:20:14;;;;;;;;;;;3.60;99.90;;;;;;5070767;28;20027;-72
2022/11/27 07:22:41;;;;;;;;;;;3.60;99.90;;;;;;5064687;28;19928;-72
2022/11/27 07:25:08;;;;;;;;;;;3.60;99.90;;;;;;5073049;28;20302;-71
2022/11/27 07:27:35;;;;;;;;;;;3.50;99.90;;;;;;5067837;28;19928;-71
2022/11/27 07:30:02;;;;;;;;;;;3.50;99.90;;;;;;5068935;28;20003;-71
2022/11/27 07:32:29;;;;;;;;;;;3.60;99.90;;;;;;5064097;28;19928;-71
2022/11/27 07:34:56;;;;;;;;;;;3.60;99.90;;;;;;5068647;28;19962;-71
2022/11/27 07:37:24;;;;;;;;;;;3.50;99.90;;;;;;5069027;28;19943;-71
2022/11/27 07:39:50;;;;;;;;;;;3.60;99.90;;;;;;5068975;28;20449;-71
2022/11/27 07:42:17;;;;;;;;;;;3.60;99.90;;;;;;5065639;28;19924;-71
2022/11/27 07:44:47;;;;;;;;;;;3.60;99.90;;;;;;5101562;27;19964;-70
2022/11/27 07:47:14;;;;;;;;;;;3.60;99.90;;;;;;5068305;28;20085;-71
2022/11/27 07:49:41;;;;;;;;;;;3.60;99.90;;;;;;5066970;28;19924;-70
2022/11/27 07:52:07;;;;;;;;;;;3.60;99.90;;;;;;5067308;28;19963;-71
2022/11/27 07:54:36;;;;;;;;;;;3.60;99.90;;;;;;5073645;28;19924;-71
2022/11/27 07:57:03;;;;;;;;;;;3.60;99.90;;;;;;5069730;28;19932;-70
2022/11/27 07:59:30;;;;;;;;;;;3.60;99.90;;;;;;5065230;28;20390;-71
2022/11/27 08:01:57;;;;;;;;;;;3.50;99.90;;;;;;5066748;28;20000;-70
2022/11/27 08:04:24;;;;;;;;;;;3.50;99.90;;;;;;5065374;28;20019;-71
2022/11/27 08:06:51;;;;;;;;;;;3.50;99.90;;;;;;5063089;28;20031;-71
2022/11/27 08:09:17;;;;;;;;;;;3.50;99.90;;;;;;5072790;28;19928;-71
2022/11/27 08:11:45;;;;;;;;;;;3.50;99.90;;;;;;5066987;28;20443;-71
2022/11/27 08:14:13;;;;;;;;;;;3.50;99.90;;;;;;5063176;28;19954;-72
2022/11/27 08:16:40;;;;;;;;;;;3.50;99.90;;;;;;5068761;28;19928;-71
2022/11/27 08:19:07;;;;;;;;;;;3.50;99.90;;;;;;5064400;28;19931;-71
2022/11/27 08:21:33;;;;;;;;;;;3.50;99.90;;;;;;5067941;28;19933;-70
2022/11/27 08:24:00;;;;;;;;;;;3.50;99.90;;;;;;5064462;28;20353;-71
2022/11/27 08:26:27;;;;;;;;;;;3.50;99.90;;;;;;5065483;28;19955;-71
2022/11/27 08:28:56;;;;;;;;;;;3.50;99.90;;;;;;5069027;28;19928;-71
2022/11/27 08:31:23;;;;;;;;;;;3.50;99.90;;;;;;5073515;28;19924;-71
2022/11/27 08:33:49;;;;;;;;;;;3.50;99.90;;;;;;5069813;28;20343;-70
2022/11/27 08:36:16;;;;;;;;;;;3.50;99.90;;;;;;5069228;28;19997;-71
2022/11/27 08:38:43;;;;;;;;;;;3.50;99.90;;;;;;5066762;28;19924;-70
2022/11/27 08:41:10;;;;;;;;;;;3.50;99.90;;;;;;5060843;28;20513;-71
2022/11/27 08:43:37;;;;;;;;;;;3.50;99.90;;;;;;5068684;28;19925;-71
2022/11/27 08:46:06;;;;;;;;;;;3.50;99.90;;;;;;5092421;27;19967;-71
2022/11/27 08:48:32;;;;;;;;;;;3.50;99.90;;;;;;5066380;28;19963;-71
2022/11/27 08:50:59;;;;;;;;;;;3.50;99.90;;;;;;5061362;28;19939;-71
2022/11/27 08:53:26;;;;;;;;;;;3.50;99.90;;;;;;5070216;28;19925;-70
2022/11/27 08:55:53;;;;;;;;;;;3.50;99.90;;;;;;5069174;28;19925;-70
2022/11/27 08:58:20;;;;;;;;;;;3.50;99.90;;;;;;5061662;28;19940;-71
2022/11/27 09:00:47;;;;;;;;;;;3.60;99.90;;;;;;5068092;28;19970;-70
2022/11/27 09:03:15;;;;;;;;;;;3.60;99.90;;;;;;5065583;28;19930;-70
2022/11/27 09:05:43;;;;;;;;;;;3.60;99.90;;;;;;5069721;28;19970;-70
2022/11/27 09:08:15;;;;;;;;;;;3.50;99.90;;;;;;5059432;28;19977;-71
2022/11/27 09:10:41;;;;;;;;;;;3.50;99.90;;;;;;5060053;28;19925;-73
2022/11/27 09:13:08;;;;;;;;;;;3.50;99.90;;;;;;5063029;28;19940;-71
2022/11/27 09:15:35;;;;;;;;;;;3.50;99.90;;;;;;5073308;28;19931;-70
2022/11/27 09:18:02;;;;;;;;;;;3.60;99.90;;;;;;5060431;28;19932;-70
2022/11/27 09:20:30;;;;;;;;;;;3.60;99.90;;;;;;5067751;28;20306;-70
2022/11/27 09:22:59;;;;;;;;;;;3.60;99.90;;;;;;5067050;28;19970;-71
2022/11/27 09:25:26;;;;;;;;;;;3.60;99.90;;;;;;5062749;28;19925;-71
2022/11/27 09:27:52;;;;;;;;;;;3.60;99.90;;;;;;5066996;28;20402;-71
2022/11/27 09:30:19;;;;;;;;;;;3.60;99.90;;;;;;5073083;28;20656;-71
2022/11/27 09:32:46;;;;;;;;;;;3.50;99.90;;;;;;5072190;28;19924;-70
2022/11/27 09:35:13;;;;;;;;;;;3.60;99.90;;;;;;5064824;28;20416;-70
2022/11/27 09:37:41;;;;;;;;;;;3.50;99.90;;;;;;5065704;28;20345;-70
2022/11/27 09:40:09;;;;;;;;;;;3.50;99.90;;;;;;5101397;27;19979;-70
2022/11/27 09:42:40;;;;;;;;;;;3.60;99.90;;;;;;5065294;28;20338;-70
2022/11/27 09:45:11;;;;;;;;;;;3.60;99.90;;;;;;5063854;28;20015;-71
2022/11/27 09:47:40;;;;;;;;;;;3.60;99.90;;;;;;5066250;28;20452;-71
2022/11/27 09:50:11;;;;;;;;;;;3.60;99.90;;;;;;5067526;28;20074;-71
2022/11/27 09:52:39;;;;;;;;;;;3.60;99.90;;;;;;5061468;28;19964;-71
2022/11/27 09:55:10;;;;;;;;;;;3.60;99.90;;;;;;5066940;28;19973;-71
2022/11/27 09:57:38;;;;;;;;;;;3.60;99.90;;;;;;5066119;28;19924;-71
2022/11/27 10:00:08;;;;;;;;;;;3.60;99.90;;;;;;5071532;28;19932;-71
2022/11/27 10:02:40;;;;;;;;;;;3.60;99.90;;;;;;5061947;28;19998;-70
2022/11/27 10:05:13;;;;;;;;;;;3.60;99.90;;;;;;5068958;28;19954;-71
2022/11/27 10:07:46;;;;;;;;;;;3.60;99.90;;;;;;5071872;28;19982;-71
2022/11/27 10:10:29;;;;;;;;;;;3.60;99.90;;;;;;5071197;28;20453;-71
2022/11/27 10:13:03;;;;;;;;;;;3.60;99.90;;;;;;5067550;28;19924;-70
2022/11/27 10:15:37;;;;;;;;;;;3.50;99.90;;;;;;5072574;28;20410;-71
2022/11/27 10:18:05;;;;;;;;;;;3.50;99.90;;;;;;5072807;28;19932;-71
2022/11/27 10:20:36;;;;;;;;;;;3.60;99.90;;;;;;5097090;27;19928;-72
2022/11/27 10:23:04;;;;;;;;;;;3.60;99.90;;;;;;5072051;28;20484;-70
2022/11/27 10:25:36;;;;;;;;;;;3.60;99.90;;;;;;5069997;28;19979;-71
2022/11/27 10:28:08;;;;;;;;;;;3.60;99.90;;;;;;5067225;28;19936;-70
2022/11/27 10:30:38;;;;;;;;;;;3.60;99.90;;;;;;5067854;28;19924;-70
2022/11/27 10:33:13;;;;;;;;;;;3.60;99.90;;;;;;5071762;28;20313;-71
2022/11/27 10:35:40;;;;;;;;;;;3.50;99.90;;;;;;5066350;28;20374;-71
2022/11/27 10:38:11;;;;;;;;;;;3.60;99.90;;;;;;5063079;28;19985;-71
2022/11/27 10:40:41;;;;;;;;;;;3.60;99.90;;;;;;5063056;28;19981;-71
2022/11/27 10:43:13;;;;;;;;;;;3.60;99.90;;;;;;5070486;28;20483;-70
2022/11/27 10:45:43;;;;;;;;;;;3.60;99.90;;;;;;5097899;27;19924;-70
2022/11/27 10:48:11;;;;;;;;;;;3.60;99.90;;;;;;5068837;28;19932;-71
2022/11/27 10:50:38;;;;;;;;;;;3.60;99.90;;;;;;5101245;27;19936;-70
2022/11/27 10:53:07;;;;;;;;;;;3.60;99.90;;;;;;5068142;28;19928;-71
2022/11/27 10:55:41;;;;;;;;;;;3.60;99.90;;;;;;5065091;28;19924;-71
2022/11/27 10:58:14;;;;;;;;;;;3.60;99.90;;;;;;5064052;28;19924;-70
2022/11/27 11:00:40;;;;;;;;;;;3.60;99.90;;;;;;5067930;28;19928;-71
2022/11/27 11:03:15;;;;;;;;;;;3.60;99.90;;;;;;5062130;28;19986;-70
2022/11/27 11:05:42;;;;;;;;;;;3.60;99.90;;;;;;5071752;28;19925;-71
2022/11/27 11:08:15;;;;;;;;;;;3.60;99.90;;;;;;5068225;28;20011;-71
2022/11/27 11:10:44;;;;;;;;;;;3.60;99.90;;;;;;5064043;28;19978;-71
2022/11/27 11:13:19;;;;;;;;;;;3.60;99.90;;;;;;5065184;28;19928;-70
2022/11/27 11:15:51;;;;;;;;;;;3.60;99.90;;;;;;5069102;28;19947;-70
2022/11/27 11:18:18;;;;;;;;;;;3.60;99.90;;;;;;5071607;28;19925;-71
2022/11/27 11:20:47;;;;;;;;;;;3.60;99.90;;;;;;5065031;28;19928;-71
2022/11/27 11:23:20;;;;;;;;;;;3.60;99.90;;;;;;5071335;28;19971;-71
2022/11/27 11:25:49;;;;;;;;;;;3.60;99.90;;;;;;5109015;27;19928;-70
2022/11/27 11:28:16;;;;;;;;;;;3.60;99.90;;;;;;5078035;28;20386;-71
2022/11/27 11:30:52;;;;;;;;;;;3.60;99.90;;;;;;5063814;28;20008;-70
2022/11/27 11:33:19;;;;;;;;;;;3.70;99.90;;;;;;5070106;28;19929;-70
2022/11/27 11:35:51;;;;;;;;;;;3.70;99.90;;;;;;5065751;28;20558;-70
2022/11/27 11:38:22;;;;;;;;;;;3.70;99.90;;;;;;5065911;28;21424;-71
2022/11/27 11:40:57;;;;;;;;;;;3.70;99.90;;;;;;5064517;28;20447;-70
2022/11/27 11:43:25;;;;;;;;;;;3.70;99.90;;;;;;5067704;28;20019;-71
2022/11/27 11:45:55;;;;;;;;;;;3.70;99.90;;;;;;5069733;28;20276;-70
2022/11/27 11:48:23;;;;;;;;;;;3.70;99.90;;;;;;5068839;28;19931;-70
2022/11/27 11:50:53;;;;;;;;;;;3.70;99.90;;;;;;5080597;28;19932;-70
2022/11/27 11:53:23;;;;;;;;;;;3.70;99.90;;;;;;5067828;28;20393;-71
2022/11/27 11:55:54;;;;;;;;;;;3.70;99.90;;;;;;5064672;28;19964;-70
2022/11/27 11:58:30;;;;;;;;;;;3.70;99.90;;;;;;5059062;28;19928;-71
2022/11/27 12:01:05;;;;;;;;;;;3.70;99.90;;;;;;5065216;28;19978;-71
2022/11/27 12:03:39;;;;;;;;;;;3.70;99.90;;;;;;5064317;28;20001;-70
2022/11/27 12:06:12;;;;;;;;;;;3.70;99.90;;;;;;5060912;28;20447;-71
2022/11/27 12:08:43;;;;;;;;;;;3.70;99.90;;;;;;5069671;28;19924;-71
2022/11/27 12:11:12;;;;;;;;;;;3.70;99.90;;;;;;5071476;28;20666;-71
2022/11/27 12:13:49;;;;;;;;;;;3.70;99.90;;;;;;5060784;28;20012;-71
2022/11/27 12:16:20;;;;;;;;;;;3.70;99.90;;;;;;5065406;28;20039;-71
2022/11/27 12:18:55;;;;;;;;;;;3.80;99.90;;;;;;5068105;28;20382;-70
2022/11/27 12:21:26;;;;;;;;;;;3.80;99.90;;;;;;5054634;28;19955;-69
2022/11/27 12:23:57;;;;;;;;;;;3.70;99.90;;;;;;5065547;28;19977;-71
2022/11/27 12:26:28;;;;;;;;;;;3.80;99.90;;;;;;5065931;28;19933;-70
2022/11/27 12:29:28;;;;;;;;;;;3.80;99.90;;;;;;5066498;28;20404;-71
2022/11/27 12:32:04;;;;;;;;;;;3.80;99.90;;;;;;5010610;28;19933;-71
2022/11/27 12:34:36;;;;;;;;;;;3.80;99.90;;;;;;5031946;28;19924;-71
2022/11/27 12:37:11;;;;;;;;;;;3.80;99.90;;;;;;5064373;28;19932;-70
2022/11/27 12:39:43;;;;;;;;;;;3.80;99.90;;;;;;5064039;28;19947;-71
2022/11/27 12:42:15;;;;;;;;;;;3.80;99.90;;;;;;5063415;28;20393;-71
2022/11/27 12:44:49;;;;;;;;;;;3.80;99.90;;;;;;5068821;28;19928;-70
2022/11/27 12:47:21;;;;;;;;;;;3.80;99.90;;;;;;5061969;28;19982;-71
2022/11/27 12:49:50;;;;;;;;;;;3.80;99.90;;;;;;5064500;28;19963;-71
2022/11/27 12:52:18;;;;;;;;;;;3.80;99.90;;;;;;5068534;28;19980;-70
2022/11/27 12:54:47;;;;;;;;;;;3.80;99.90;;;;;;5066470;28;19928;-70
2022/11/27 12:57:17;;;;;;;;;;;3.80;99.90;;;;;;5058554;28;19931;-71
2022/11/27 12:59:46;;;;;;;;;;;3.80;99.90;;;;;;5064185;28;19924;-70
2022/11/27 13:02:23;;;;;;;;;;;3.80;99.90;;;;;;5059995;28;19928;-72
2022/11/27 13:04:52;;;;;;;;;;;3.90;99.90;;;;;;5061012;28;19925;-73
2022/11/27 13:07:21;;;;;;;;;;;3.90;99.90;;;;;;5091205;27;19959;-71
2022/11/27 13:09:51;;;;;;;;;;;3.90;99.90;;;;;;5065385;28;20362;-70
2022/11/27 13:12:20;;;;;;;;;;;3.90;99.90;;;;;;5061157;28;19932;-70
2022/11/27 13:14:52;;;;;;;;;;;3.90;99.90;;;;;;5066268;28;19932;-70
2022/11/27 13:17:20;;;;;;;;;;;3.90;99.90;;;;;;5069918;28;19987;-70
2022/11/27 13:19:49;;;;;;;;;;;3.90;99.90;;;;;;5063462;28;19944;-71
2022/11/27 13:22:20;;;;;;;;;;;3.90;99.90;;;;;;5058195;28;19925;-70
2022/11/27 13:24:47;;;;;;;;;;;3.90;99.90;;;;;;5061360;28;20369;-70
2022/11/27 13:27:15;;;;;;;;;;;3.90;99.90;;;;;;5062523;28;19975;-70
2022/11/27 13:29:43;;;;;;;;;;;3.90;99.90;;;;;;5073933;28;19975;-70
2022/11/27 13:32:18;;;;;;;;;;;4.00;99.90;;;;;;5053087;28;19924;-70
2022/11/27 13:34:47;;;;;;;;;;;3.90;99.90;;;;;;5064723;28;20394;-70
2022/11/27 13:37:24;;;;;;;;;;;4.00;99.90;;;;;;5066497;28;19924;-70
2022/11/27 13:39:58;;;;;;;;;;;4.00;99.90;;;;;;5071194;28;20015;-70
2022/11/27 13:42:25;;;;;;;;;;;4.00;99.90;;;;;;5095145;27;19997;-71
2022/11/27 13:44:55;;;;;;;;;;;4.00;99.90;;;;;;5068289;28;20201;-70
2022/11/27 13:47:23;;;;;;;;;;;4.00;99.90;;;;;;5067784;28;19993;-70
2022/11/27 13:50:00;;;;;;;;;;;4.00;99.90;;;;;;5052036;28;19934;-70
2022/11/27 13:52:28;;;;;;;;;;;4.00;99.90;;;;;;5043253;28;19939;-70
2022/11/27 13:54:56;;;;;;;;;;;4.00;99.90;;;;;;5038017;28;19932;-70
2022/11/27 13:57:23;;;;;;;;;;;4.00;99.90;;;;;;5053204;28;19924;-73
2022/11/27 14:00:00;;;;;;;;;;;4.00;99.90;;;;;;5051249;28;19946;-74
2022/11/27 14:02:39;;;;;;;;;;;4.00;99.90;;;;;;5043215;28;19932;-76
2022/11/27 14:05:07;;;;;;;;;;;4.00;99.90;;;;;;5050621;28;19929;-72
2022/11/27 14:07:36;;;;;;;;;;;4.00;99.90;;;;;;5053263;28;19925;-69
2022/11/27 14:10:06;;;;;;;;;;;4.00;99.90;;;;;;5050260;28;20074;-74
2022/11/27 14:12:33;;;;;;;;;;;4.00;99.90;;;;;;5057848;28;20400;-71
2022/11/27 14:15:02;;;;;;;;;;;4.00;99.90;;;;;;5053093;28;19932;-71
2022/11/27 14:17:34;;;;;;;;;;;4.00;99.90;;;;;;5068908;28;19928;-71
2022/11/27 14:20:04;;;;;;;;;;;4.00;99.90;;;;;;5047457;28;19928;-75
2022/11/27 14:22:34;;;;;;;;;;;4.00;99.90;;;;;;5087893;28;19928;-75
2022/11/27 14:25:01;;;;;;;;;;;4.00;99.90;;;;;;5056645;28;19972;-74
2022/11/27 14:27:35;;;;;;;;;;;4.10;99.90;;;;;;5042971;28;19954;-70
2022/11/27 14:30:14;;;;;;;;;;;4.00;99.90;;;;;;5053413;28;19932;-71
2022/11/27 14:32:41;;;;;;;;;;;4.00;99.90;;;;;;5054382;28;19962;-71
2022/11/27 14:35:18;;;;;;;;;;;4.00;99.90;;;;;;5055640;28;19996;-71
2022/11/27 14:37:49;;;;;;;;;;;4.00;99.90;;;;;;5086266;28;19964;-70
2022/11/27 14:40:20;;;;;;;;;;;4.10;99.90;;;;;;5051964;28;20006;-71